createdAt,value
2022-12-31T00:01:06.150Z,88.00
2022-12-31T00:03:36.300Z,87.95
2022-12-31T00:06:15.745Z,88.75
2022-12-31T00:08:44.891Z,87.18
2022-12-31T00:11:13.487Z,88.27
2022-12-31T00:13:43.287Z,88.03
2022-12-31T00:16:13.953Z,89.32
2022-12-31T00:18:45.042Z,88.06
2022-12-31T00:21:15.895Z,87.80
2022-12-31T00:23:44.672Z,89.05
2022-12-31T00:26:15.860Z,87.78
2022-12-31T00:28:45.564Z,87.14
2022-12-31T00:31:16.099Z,88.14
2022-12-31T00:33:45.274Z,87.63
2022-12-31T00:36:17.241Z,87.92
2022-12-31T00:38:51.328Z,87.91
2022-12-31T00:41:24.804Z,88.02
2022-12-31T00:43:53.649Z,89.04
2022-12-31T00:46:22.682Z,89.03
2022-12-31T00:48:51.319Z,89.30
2022-12-31T00:51:27.374Z,88.73
2022-12-31T00:53:59.930Z,88.67
2022-12-31T00:56:29.175Z,89.05
2022-12-31T00:59:00.942Z,89.95
2022-12-31T01:01:31.127Z,88.96
2022-12-31T01:04:01.669Z,88.96
2022-12-31T01:06:31.657Z,88.87
2022-12-31T01:09:02.803Z,88.84
2022-12-31T01:11:29.776Z,89.08
2022-12-31T01:14:00.190Z,89.71
2022-12-31T01:16:30.247Z,89.34
2022-12-31T01:19:03.477Z,88.76
2022-12-31T01:21:33.512Z,88.56
2022-12-31T01:24:03.537Z,88.17
2022-12-31T01:26:32.031Z,88.78
2022-12-31T01:29:01.152Z,88.95
2022-12-31T01:31:30.440Z,87.41
2022-12-31T01:33:59.884Z,87.47
2022-12-31T01:36:29.863Z,87.39
2022-12-31T01:39:02.030Z,87.65
2022-12-31T01:41:34.040Z,87.52
2022-12-31T01:44:04.248Z,86.53
2022-12-31T01:46:37.218Z,86.88
2022-12-31T01:49:11.273Z,86.18
2022-12-31T01:51:40.154Z,86.01
2022-12-31T01:54:11.095Z,87.61
2022-12-31T01:56:41.285Z,86.39
2022-12-31T01:59:11.485Z,85.58
2022-12-31T02:01:43.808Z,85.65
2022-12-31T02:04:15.196Z,85.37
2022-12-31T02:09:33.815Z,84.61
2022-12-31T02:12:02.151Z,84.25
2022-12-31T02:14:32.112Z,84.34
2022-12-31T02:17:07.112Z,85.07
2022-12-31T02:20:06.678Z,84.33
2022-12-31T02:22:47.532Z,84.63
2022-12-31T02:25:52.066Z,84.83
2022-12-31T02:28:35.531Z,84.33
2022-12-31T02:31:10.400Z,84.66
2022-12-31T02:33:41.285Z,84.44
2022-12-31T02:36:13.516Z,85.03
2022-12-31T02:38:47.151Z,84.83
2022-12-31T02:41:36.199Z,84.81
2022-12-31T02:44:24.995Z,85.07
2022-12-31T02:47:06.310Z,85.40
2022-12-31T02:49:38.762Z,85.83
2022-12-31T02:52:12.699Z,85.83
2022-12-31T02:54:46.258Z,86.35
2022-12-31T02:57:18.231Z,85.99
2022-12-31T03:00:31.093Z,86.33
2022-12-31T03:03:02.068Z,86.09
2022-12-31T03:05:32.283Z,86.48
2022-12-31T03:08:01.042Z,86.71
2022-12-31T03:10:30.525Z,86.62
2022-12-31T03:12:58.145Z,86.59
2022-12-31T03:15:31.319Z,86.10
2022-12-31T03:18:05.218Z,85.68
2022-12-31T03:20:52.859Z,86.25
2022-12-31T03:23:25.503Z,85.93
2022-12-31T03:25:53.375Z,85.95
2022-12-31T03:28:25.095Z,86.16
2022-12-31T03:30:55.565Z,85.66
2022-12-31T03:33:25.534Z,85.51
2022-12-31T03:35:54.569Z,85.74
2022-12-31T03:38:23.675Z,86.09
2022-12-31T03:40:53.377Z,86.57
2022-12-31T03:43:21.558Z,86.36
2022-12-31T03:45:52.609Z,86.54
2022-12-31T03:48:22.652Z,86.05
2022-12-31T03:50:52.245Z,85.99
2022-12-31T03:53:20.943Z,85.62
2022-12-31T03:55:56.075Z,85.43
2022-12-31T03:58:25.684Z,85.78
2022-12-31T04:00:54.235Z,86.18
2022-12-31T04:03:22.409Z,86.04
2022-12-31T04:05:55.432Z,86.33
2022-12-31T04:08:25.066Z,85.94
2022-12-31T04:10:54.131Z,85.95
2022-12-31T04:13:22.677Z,86.15
2022-12-31T04:15:52.311Z,85.12
2022-12-31T04:18:20.716Z,85.22
2022-12-31T04:20:48.757Z,86.04
2022-12-31T04:23:18.832Z,85.69
2022-12-31T04:25:46.858Z,84.82
2022-12-31T04:28:15.039Z,85.13
2022-12-31T04:30:44.797Z,85.21
2022-12-31T04:33:12.777Z,85.45
2022-12-31T04:35:41.454Z,85.32
2022-12-31T04:38:09.810Z,85.08
2022-12-31T04:40:59.958Z,84.81
2022-12-31T04:43:27.972Z,85.48
2022-12-31T04:45:56.169Z,85.26
2022-12-31T04:48:24.412Z,85.92
2022-12-31T04:50:53.207Z,85.44
2022-12-31T04:53:21.570Z,85.74
2022-12-31T04:55:51.864Z,85.73
2022-12-31T04:58:20.515Z,86.20
2022-12-31T05:00:50.656Z,86.26
2022-12-31T05:03:19.518Z,86.06
2022-12-31T05:05:47.934Z,86.32
2022-12-31T05:08:18.387Z,85.71
2022-12-31T05:10:49.716Z,85.82
2022-12-31T05:13:19.613Z,85.65
2022-12-31T05:15:48.360Z,85.15
2022-12-31T05:18:17.726Z,85.21
2022-12-31T05:20:47.625Z,85.19
2022-12-31T05:23:16.421Z,85.17
2022-12-31T05:25:45.778Z,84.79
2022-12-31T05:28:15.069Z,85.39
2022-12-31T05:30:46.333Z,85.21
2022-12-31T05:33:14.679Z,85.05
2022-12-31T05:35:42.947Z,85.98
2022-12-31T05:38:13.391Z,87.05
2022-12-31T05:40:41.463Z,88.68
2022-12-31T05:43:09.547Z,90.29
2022-12-31T05:45:37.589Z,92.27
2022-12-31T05:48:08.101Z,93.15
2022-12-31T05:50:37.913Z,93.58
2022-12-31T05:53:06.532Z,94.52
2022-12-31T05:55:34.652Z,94.40
2022-12-31T05:58:03.142Z,94.93
2022-12-31T06:00:31.119Z,94.98
2022-12-31T06:02:59.953Z,94.84
2022-12-31T06:05:29.573Z,95.38
2022-12-31T06:07:58.177Z,95.33
2022-12-31T06:10:26.784Z,95.29
2022-12-31T06:12:55.358Z,95.11
2022-12-31T06:15:23.632Z,94.70
2022-12-31T06:17:51.511Z,94.54
2022-12-31T06:20:19.701Z,94.69
2022-12-31T06:22:49.707Z,94.26
2022-12-31T06:25:17.934Z,94.62
2022-12-31T06:27:46.193Z,94.91
2022-12-31T06:30:15.234Z,94.63
2022-12-31T06:32:43.825Z,94.27
2022-12-31T06:35:13.318Z,93.17
2022-12-31T06:37:41.468Z,92.76
2022-12-31T06:40:13.470Z,93.08
2022-12-31T06:42:42.952Z,92.53
2022-12-31T06:45:11.920Z,92.62
2022-12-31T06:47:39.915Z,92.21
2022-12-31T06:50:09.314Z,92.04
2022-12-31T06:52:37.443Z,92.11
2022-12-31T06:55:06.855Z,91.13
2022-12-31T06:57:37.508Z,90.87
2022-12-31T07:00:07.980Z,91.26
2022-12-31T07:02:59.269Z,90.20
2022-12-31T07:05:40.145Z,89.57
2022-12-31T07:08:17.634Z,89.59
2022-12-31T07:10:51.373Z,88.92
2022-12-31T07:13:47.524Z,88.81
2022-12-31T07:16:24.794Z,88.00
2022-12-31T07:18:57.947Z,88.32
2022-12-31T07:21:33.251Z,87.88
2022-12-31T07:24:01.829Z,87.41
2022-12-31T07:26:42.319Z,86.56
2022-12-31T07:29:17.458Z,87.45
2022-12-31T07:31:56.752Z,86.62
2022-12-31T07:34:28.136Z,86.07
2022-12-31T07:37:04.415Z,85.15
2022-12-31T07:39:41.103Z,84.19
2022-12-31T07:42:15.016Z,84.19
2022-12-31T07:44:53.679Z,83.66
2022-12-31T07:47:24.711Z,83.68
2022-12-31T07:49:53.946Z,83.20
2022-12-31T07:52:24.001Z,83.13
2022-12-31T07:54:53.184Z,82.44
2022-12-31T07:57:22.536Z,82.20
2022-12-31T08:00:03.377Z,82.09
2022-12-31T08:03:16.219Z,81.93
2022-12-31T08:05:51.928Z,81.75
2022-12-31T08:08:29.568Z,81.36
2022-12-31T08:11:07.848Z,81.35
2022-12-31T08:13:36.455Z,81.26
2022-12-31T08:16:13.099Z,80.84
2022-12-31T08:18:41.836Z,80.48
2022-12-31T08:21:21.784Z,80.20
2022-12-31T08:23:56.618Z,79.96
2022-12-31T08:26:31.345Z,79.76
2022-12-31T08:29:07.194Z,79.66
2022-12-31T08:31:45.273Z,79.86
2022-12-31T08:34:19.552Z,79.56
2022-12-31T08:36:54.016Z,78.92
2022-12-31T08:39:34.331Z,78.81
2022-12-31T08:42:05.598Z,79.15
2022-12-31T08:44:39.120Z,78.56
2022-12-31T08:47:14.161Z,78.84
2022-12-31T08:49:42.750Z,78.60
2022-12-31T08:52:17.399Z,78.05
2022-12-31T08:54:45.966Z,77.88
2022-12-31T08:57:20.730Z,78.02
2022-12-31T08:59:52.729Z,77.47
2022-12-31T09:02:59.621Z,77.08
2022-12-31T09:05:36.500Z,76.66
2022-12-31T09:08:11.099Z,76.98
2022-12-31T09:10:44.590Z,76.49
2022-12-31T09:13:18.487Z,76.32
2022-12-31T09:15:54.199Z,76.10
2022-12-31T09:18:27.047Z,76.22
2022-12-31T09:20:59.953Z,76.36
2022-12-31T09:23:29.558Z,75.24
2022-12-31T09:26:02.486Z,74.78
2022-12-31T09:28:39.657Z,74.76
2022-12-31T09:31:13.361Z,74.13
2022-12-31T09:33:51.318Z,73.10
2022-12-31T09:36:25.831Z,72.99
2022-12-31T09:39:02.191Z,72.55
2022-12-31T09:42:13.816Z,72.52
2022-12-31T09:45:12.799Z,72.30
2022-12-31T09:48:16.949Z,72.00
2022-12-31T09:51:07.324Z,72.31
2022-12-31T09:53:42.027Z,71.89
2022-12-31T09:56:16.115Z,71.78
2022-12-31T09:58:54.164Z,71.06
2022-12-31T10:01:30.084Z,70.48
2022-12-31T10:04:12.283Z,70.43
2022-12-31T10:06:47.532Z,70.57
2022-12-31T10:09:32.081Z,70.33
2022-12-31T10:12:15.995Z,70.71
2022-12-31T10:14:56.920Z,71.10
2022-12-31T10:17:33.750Z,71.59
2022-12-31T10:20:21.737Z,71.65
2022-12-31T10:23:22.549Z,71.50
2022-12-31T10:26:10.493Z,71.28
2022-12-31T10:28:47.413Z,71.33
2022-12-31T10:31:23.039Z,71.47
2022-12-31T10:33:56.562Z,70.86
2022-12-31T10:36:32.089Z,70.96
2022-12-31T10:39:08.949Z,70.77
2022-12-31T10:42:23.143Z,70.33
2022-12-31T10:45:29.119Z,70.57
2022-12-31T10:48:43.458Z,70.85
2022-12-31T10:51:43.705Z,70.73
2022-12-31T10:55:02.907Z,71.30
2022-12-31T10:57:54.613Z,72.90
2022-12-31T11:00:29.388Z,73.43
2022-12-31T11:03:39.958Z,73.61
2022-12-31T11:06:31.665Z,72.93
2022-12-31T11:09:34.199Z,73.06
2022-12-31T11:12:06.661Z,72.95
2022-12-31T11:14:51.627Z,72.99
2022-12-31T11:17:32.542Z,73.40
2022-12-31T11:20:17.493Z,73.48
2022-12-31T11:22:58.061Z,73.22
2022-12-31T11:25:34.520Z,73.23
2022-12-31T11:28:17.958Z,73.33
2022-12-31T11:30:59.408Z,72.26
2022-12-31T11:33:36.612Z,72.18
2022-12-31T11:36:19.447Z,72.21
2022-12-31T11:38:52.636Z,72.00
2022-12-31T11:41:24.809Z,71.52
2022-12-31T11:44:01.937Z,71.19
2022-12-31T11:46:49.596Z,70.90
2022-12-31T11:49:47.552Z,70.21
2022-12-31T11:52:31.793Z,69.67
2022-12-31T11:55:12.029Z,69.09
2022-12-31T11:57:42.293Z,68.93
2022-12-31T12:00:20.162Z,69.05
2022-12-31T12:02:49.283Z,69.03
2022-12-31T12:05:20.185Z,68.56
2022-12-31T12:07:51.770Z,68.49
2022-12-31T12:10:29.138Z,68.43
2022-12-31T12:13:01.725Z,68.23
2022-12-31T12:15:32.640Z,67.64
2022-12-31T12:18:05.816Z,67.34
2022-12-31T12:20:37.313Z,66.96
2022-12-31T12:23:17.696Z,66.78
2022-12-31T12:25:46.601Z,66.70
2022-12-31T12:28:22.601Z,67.02
2022-12-31T12:30:57.089Z,66.66
2022-12-31T12:33:26.619Z,66.65
2022-12-31T12:35:54.955Z,66.67
2022-12-31T12:38:24.911Z,67.03
2022-12-31T12:41:00.205Z,66.83
2022-12-31T12:43:31.745Z,67.02
2022-12-31T12:46:03.916Z,67.02
2022-12-31T12:48:38.003Z,67.31
2022-12-31T12:51:18.470Z,67.27
2022-12-31T12:53:55.783Z,67.11
2022-12-31T12:56:32.452Z,67.17
2022-12-31T12:59:17.325Z,67.43
2022-12-31T13:01:51.213Z,67.06
2022-12-31T13:04:39.967Z,67.17
2022-12-31T13:07:32.290Z,66.96
2022-12-31T13:10:23.183Z,66.84
2022-12-31T13:13:23.203Z,66.64
2022-12-31T13:15:51.123Z,66.57
2022-12-31T13:18:31.710Z,66.64
2022-12-31T13:21:03.327Z,66.54
2022-12-31T13:23:39.891Z,66.27
2022-12-31T13:26:13.335Z,66.00
2022-12-31T13:28:43.778Z,66.02
2022-12-31T13:31:15.836Z,65.62
2022-12-31T13:33:47.926Z,66.57
2022-12-31T13:36:18.323Z,65.89
2022-12-31T13:38:48.533Z,65.99
2022-12-31T13:41:20.664Z,65.98
2022-12-31T13:43:57.974Z,66.03
2022-12-31T13:46:38.814Z,65.91
2022-12-31T13:49:15.489Z,65.65
2022-12-31T13:51:47.924Z,65.64
2022-12-31T13:54:27.791Z,65.60
2022-12-31T13:56:58.936Z,65.82
2022-12-31T13:59:30.120Z,65.42
2022-12-31T14:02:02.069Z,65.56
2022-12-31T14:04:34.880Z,65.69
2022-12-31T14:07:08.658Z,65.56
2022-12-31T14:09:37.892Z,65.86
2022-12-31T14:12:31.156Z,65.56
2022-12-31T14:15:05.264Z,66.38
2022-12-31T14:17:39.070Z,66.71
2022-12-31T14:20:16.419Z,66.59
2022-12-31T14:22:50.868Z,66.39
2022-12-31T14:25:22.804Z,66.03
2022-12-31T14:27:54.777Z,66.39
2022-12-31T14:30:25.013Z,66.22
2022-12-31T14:33:15.279Z,65.80
2022-12-31T14:35:57.901Z,66.00
2022-12-31T14:38:38.490Z,65.49
2022-12-31T14:41:14.768Z,65.55
2022-12-31T14:43:50.636Z,65.60
2022-12-31T14:46:27.259Z,65.57
2022-12-31T14:49:03.981Z,65.50
2022-12-31T14:51:32.292Z,65.77
2022-12-31T14:54:00.583Z,65.90
2022-12-31T14:56:33.309Z,65.76
2022-12-31T14:59:03.940Z,65.52
2022-12-31T15:01:32.557Z,65.82
2022-12-31T15:04:02.066Z,65.85
2022-12-31T15:06:37.462Z,65.98
2022-12-31T15:09:19.678Z,66.00
2022-12-31T15:12:04.961Z,66.26
2022-12-31T15:14:45.884Z,66.52
2022-12-31T15:17:23.623Z,66.68
2022-12-31T15:20:25.939Z,67.02
2022-12-31T15:22:55.460Z,67.63
2022-12-31T15:25:35.228Z,67.58
2022-12-31T15:28:08.401Z,67.79
2022-12-31T15:30:45.396Z,68.11
2022-12-31T15:33:21.365Z,68.15
2022-12-31T15:35:51.860Z,68.12
2022-12-31T15:38:33.785Z,68.06
2022-12-31T15:41:02.528Z,68.35
2022-12-31T15:43:37.486Z,68.24
2022-12-31T15:46:12.602Z,68.35
2022-12-31T15:48:47.832Z,68.36
2022-12-31T15:51:22.807Z,68.28
2022-12-31T15:53:53.360Z,68.18
2022-12-31T15:56:27.367Z,68.68
2022-12-31T15:59:00.523Z,68.42
2022-12-31T16:01:32.685Z,68.64
2022-12-31T16:04:04.500Z,68.45
2022-12-31T16:06:37.255Z,68.49
2022-12-31T16:09:08.188Z,68.52
2022-12-31T16:11:38.468Z,68.49
2022-12-31T16:14:08.176Z,68.27
2022-12-31T16:16:38.850Z,68.40
2022-12-31T16:19:31.344Z,68.41
2022-12-31T16:22:03.495Z,67.95
2022-12-31T16:24:35.225Z,68.11
2022-12-31T16:27:08.589Z,68.03
2022-12-31T16:29:37.620Z,67.79
2022-12-31T16:32:12.494Z,67.63
2022-12-31T16:34:41.080Z,67.71
2022-12-31T16:37:16.734Z,67.71
2022-12-31T16:40:09.881Z,67.31
2022-12-31T16:42:44.293Z,67.33
2022-12-31T16:45:20.547Z,67.00
2022-12-31T16:47:51.458Z,67.06
2022-12-31T16:50:22.311Z,66.75
2022-12-31T16:52:52.369Z,66.51
2022-12-31T16:55:23.255Z,66.45
2022-12-31T16:57:55.680Z,66.44
2022-12-31T17:00:27.319Z,66.26
2022-12-31T17:03:09.093Z,66.08
2022-12-31T17:05:57.111Z,66.15
2022-12-31T17:08:27.977Z,66.09
2022-12-31T17:10:58.319Z,66.01
2022-12-31T17:13:30.748Z,66.02
2022-12-31T17:15:59.835Z,66.01
2022-12-31T17:18:31.878Z,65.62
2022-12-31T17:21:08.831Z,65.67
2022-12-31T17:23:39.617Z,65.68
2022-12-31T17:26:10.883Z,65.72
2022-12-31T17:28:43.556Z,65.62
2022-12-31T17:31:30.468Z,65.43
2022-12-31T17:34:27.188Z,65.32
2022-12-31T17:37:02.252Z,65.40
2022-12-31T17:39:47.015Z,65.31
2022-12-31T17:42:29.569Z,65.26
2022-12-31T17:45:01.169Z,64.91
2022-12-31T17:47:38.745Z,65.00
2022-12-31T17:50:21.515Z,65.09
2022-12-31T17:52:49.962Z,64.64
2022-12-31T17:55:19.278Z,64.70
2022-12-31T17:57:50.672Z,64.87
2022-12-31T18:00:20.657Z,64.93
2022-12-31T18:02:49.226Z,64.93
2022-12-31T18:05:20.301Z,65.03
2022-12-31T18:07:49.060Z,64.92
2022-12-31T18:10:18.913Z,64.73
2022-12-31T18:12:48.452Z,64.83
2022-12-31T18:15:18.549Z,64.83
2022-12-31T18:17:46.942Z,64.67
2022-12-31T18:20:15.411Z,64.73
2022-12-31T18:22:45.544Z,64.92
2022-12-31T18:25:17.358Z,65.39
2022-12-31T18:27:46.753Z,65.29
2022-12-31T18:30:17.706Z,65.28
2022-12-31T18:32:49.719Z,65.24
2022-12-31T18:35:58.132Z,65.20
2022-12-31T18:38:20.159Z,65.15
2022-12-31T18:40:58.130Z,65.34
2022-12-31T18:43:26.866Z,65.19
2022-12-31T18:45:55.732Z,65.32
2022-12-31T18:48:24.567Z,65.09
2022-12-31T18:50:52.684Z,65.58
2022-12-31T18:53:24.851Z,65.59
2022-12-31T18:55:57.111Z,65.53
2022-12-31T18:58:25.736Z,65.37
2022-12-31T19:00:53.839Z,65.50
2022-12-31T19:03:25.638Z,65.84
2022-12-31T19:05:55.669Z,65.70
2022-12-31T19:08:25.503Z,65.92
2022-12-31T19:10:55.398Z,66.04
2022-12-31T19:13:24.141Z,66.26
2022-12-31T19:15:53.327Z,66.40
2022-12-31T19:18:21.507Z,66.80
2022-12-31T19:20:49.860Z,66.95
2022-12-31T19:23:26.093Z,67.06
2022-12-31T19:25:55.937Z,67.29
2022-12-31T19:28:25.451Z,67.54
2022-12-31T19:30:53.956Z,67.71
2022-12-31T19:33:22.419Z,67.30
2022-12-31T19:35:50.552Z,67.83
2022-12-31T19:38:21.353Z,67.23
2022-12-31T19:40:50.392Z,67.45
2022-12-31T19:43:22.560Z,67.06
2022-12-31T19:45:51.401Z,67.14
2022-12-31T19:48:28.719Z,66.88
2022-12-31T19:51:01.594Z,67.01
2022-12-31T19:53:31.585Z,66.81
2022-12-31T19:55:59.623Z,66.84
2022-12-31T19:58:31.118Z,66.53
2022-12-31T20:01:03.358Z,66.64
2022-12-31T20:03:33.379Z,66.50
2022-12-31T20:06:04.648Z,66.31
2022-12-31T20:08:33.472Z,66.30
2022-12-31T20:11:08.465Z,66.11
2022-12-31T20:13:38.405Z,66.11
2022-12-31T20:16:09.367Z,65.86
2022-12-31T20:18:38.391Z,65.60
2022-12-31T20:21:10.436Z,65.71
2022-12-31T20:23:38.588Z,65.58
2022-12-31T20:26:08.079Z,65.59
2022-12-31T20:28:39.342Z,65.65
2022-12-31T20:31:08.350Z,65.15
2022-12-31T20:33:36.553Z,65.38
2022-12-31T20:36:05.699Z,65.23
2022-12-31T20:38:34.489Z,65.01
2022-12-31T20:41:06.427Z,65.09
2022-12-31T20:43:35.328Z,64.64
2022-12-31T20:46:15.313Z,64.89
2022-12-31T20:48:45.010Z,64.62
2022-12-31T20:51:13.560Z,64.52
2022-12-31T20:53:42.213Z,64.23
2022-12-31T20:56:10.643Z,64.07
2022-12-31T20:58:39.222Z,64.42
2022-12-31T21:01:10.864Z,63.98
2022-12-31T21:06:28.994Z,63.43
2022-12-31T21:08:59.401Z,63.45
2022-12-31T21:11:45.270Z,63.25
2022-12-31T21:14:16.190Z,63.45
2022-12-31T21:16:46.157Z,63.23
2022-12-31T21:19:14.677Z,63.00
2022-12-31T21:21:43.219Z,63.19
2022-12-31T21:24:12.045Z,62.84
2022-12-31T21:26:40.997Z,62.71
2022-12-31T21:29:10.827Z,62.83
2022-12-31T21:31:41.621Z,62.59
2022-12-31T21:34:11.356Z,62.47
2022-12-31T21:36:39.840Z,62.47
2022-12-31T21:39:08.407Z,62.34
2022-12-31T21:41:52.606Z,62.10
2022-12-31T21:44:21.505Z,62.20
2022-12-31T21:47:32.770Z,61.98
2022-12-31T21:49:39.177Z,61.53
2022-12-31T21:52:26.717Z,61.72
2022-12-31T21:55:12.805Z,61.75
2022-12-31T21:58:07.128Z,61.61
2022-12-31T22:00:47.873Z,61.51
2022-12-31T22:03:31.724Z,61.50
2022-12-31T22:06:10.214Z,61.27
2022-12-31T22:08:38.325Z,61.32
2022-12-31T22:11:07.510Z,61.18
2022-12-31T22:13:36.589Z,61.42
2022-12-31T22:16:06.751Z,61.46
2022-12-31T22:18:39.086Z,61.22
2022-12-31T22:21:18.339Z,61.04
2022-12-31T22:23:51.785Z,61.23
2022-12-31T22:26:24.620Z,60.97
2022-12-31T22:28:53.196Z,61.23
2022-12-31T22:31:24.907Z,61.36
2022-12-31T22:33:57.039Z,61.21
2022-12-31T22:36:29.605Z,61.13
2022-12-31T22:38:59.613Z,61.31
2022-12-31T22:41:30.302Z,61.25
2022-12-31T22:44:03.777Z,61.23
2022-12-31T22:46:33.181Z,61.38
2022-12-31T22:49:02.413Z,60.71
2022-12-31T22:51:57.162Z,61.31
2022-12-31T22:54:20.991Z,61.14
2022-12-31T22:56:51.660Z,61.14
2022-12-31T22:59:21.340Z,61.24
2022-12-31T23:01:50.648Z,61.39
2022-12-31T23:04:18.980Z,61.31
2022-12-31T23:06:49.777Z,61.23
2022-12-31T23:09:36.958Z,61.39
2022-12-31T23:12:08.172Z,61.23
2022-12-31T23:14:55.990Z,61.57
2022-12-31T23:17:44.899Z,61.21
2022-12-31T23:20:34.378Z,60.97
2022-12-31T23:23:10.898Z,61.17
2022-12-31T23:25:41.033Z,60.88
2022-12-31T23:28:11.671Z,61.20
2022-12-31T23:30:40.630Z,60.89
2022-12-31T23:33:09.637Z,61.02
2022-12-31T23:35:39.505Z,61.13
2022-12-31T23:38:10.979Z,60.66
2022-12-31T23:40:40.402Z,60.40
2022-12-31T23:43:11.688Z,60.40
2022-12-31T23:45:40.392Z,60.08
2022-12-31T23:48:09.595Z,59.99
2022-12-31T23:50:37.989Z,59.83
2022-12-31T23:53:06.351Z,59.89
2022-12-31T23:55:36.105Z,59.72
2022-12-31T23:58:04.109Z,59.76
